sensor_id;sensor_type;location;lat;lon;timestamp;pressure;altitude;pressure_sealevel;temperature;humidity
8653;BME280;4364;52.426;9.424;2023-02-04T00:01:28;102301.31;;;4.58;96.51
8653;BME280;4364;52.426;9.424;2023-02-04T00:03:55;102305.34;;;4.75;94.72
8653;BME280;4364;52.426;9.424;2023-02-04T00:06:21;102300.34;;;4.72;94.60
8653;BME280;4364;52.426;9.424;2023-02-04T00:08:48;102310.44;;;4.63;95.39
8653;BME280;4364;52.426;9.424;2023-02-04T00:11:14;102307.91;;;4.55;95.80
8653;BME280;4364;52.426;9.424;2023-02-04T00:13:40;102313.19;;;4.70;94.72
8653;BME280;4364;52.426;9.424;2023-02-04T00:16:07;102313.81;;;4.72;92.40
8653;BME280;4364;52.426;9.424;2023-02-04T00:18:34;102320.00;;;4.66;91.67
8653;BME280;4364;52.426;9.424;2023-02-04T00:21:00;102319.06;;;4.52;92.21
8653;BME280;4364;52.426;9.424;2023-02-04T00:23:27;102322.34;;;4.48;92.44
8653;BME280;4364;52.426;9.424;2023-02-04T00:25:53;102324.25;;;4.54;90.51
8653;BME280;4364;52.426;9.424;2023-02-04T00:28:20;102330.19;;;4.42;90.95
8653;BME280;4364;52.426;9.424;2023-02-04T00:30:46;102323.34;;;4.40;91.22
8653;BME280;4364;52.426;9.424;2023-02-04T00:33:12;102327.41;;;4.57;90.99
8653;BME280;4364;52.426;9.424;2023-02-04T00:35:41;102319.50;;;4.56;90.23
8653;BME280;4364;52.426;9.424;2023-02-04T00:38:08;102326.63;;;4.63;90.10
8653;BME280;4364;52.426;9.424;2023-02-04T00:40:35;102346.81;;;4.46;90.63
8653;BME280;4364;52.426;9.424;2023-02-04T00:43:04;102342.31;;;4.53;89.60
8653;BME280;4364;52.426;9.424;2023-02-04T00:45:30;102352.94;;;4.33;89.65
8653;BME280;4364;52.426;9.424;2023-02-04T00:47:58;102350.47;;;4.38;89.90
8653;BME280;4364;52.426;9.424;2023-02-04T00:50:24;102356.13;;;4.22;89.54
8653;BME280;4364;52.426;9.424;2023-02-04T00:52:51;102351.50;;;4.37;87.79
8653;BME280;4364;52.426;9.424;2023-02-04T00:55:18;102365.09;;;4.29;87.08
8653;BME280;4364;52.426;9.424;2023-02-04T00:57:44;102363.69;;;4.33;87.13
8653;BME280;4364;52.426;9.424;2023-02-04T01:00:14;102373.31;;;4.21;86.17
8653;BME280;4364;52.426;9.424;2023-02-04T01:02:40;102377.03;;;4.20;86.60
8653;BME280;4364;52.426;9.424;2023-02-04T01:05:07;102383.94;;;4.07;87.19
8653;BME280;4364;52.426;9.424;2023-02-04T01:07:34;102404.91;;;4.12;87.17
8653;BME280;4364;52.426;9.424;2023-02-04T01:10:01;102417.69;;;4.03;87.24
8653;BME280;4364;52.426;9.424;2023-02-04T01:12:29;102418.50;;;4.04;87.41
8653;BME280;4364;52.426;9.424;2023-02-04T01:14:55;102423.00;;;3.97;87.80
8653;BME280;4364;52.426;9.424;2023-02-04T01:17:23;102431.75;;;3.84;87.73
8653;BME280;4364;52.426;9.424;2023-02-04T01:19:52;102434.16;;;3.79;88.78
8653;BME280;4364;52.426;9.424;2023-02-04T01:22:18;102434.53;;;3.76;88.59
8653;BME280;4364;52.426;9.424;2023-02-04T01:24:45;102433.28;;;3.71;88.97
8653;BME280;4364;52.426;9.424;2023-02-04T01:27:30;102454.78;;;3.71;89.49
8653;BME280;4364;52.426;9.424;2023-02-04T01:29:56;102464.84;;;3.63;89.35
8653;BME280;4364;52.426;9.424;2023-02-04T01:32:23;102463.34;;;3.60;89.98
8653;BME280;4364;52.426;9.424;2023-02-04T01:34:50;102465.84;;;3.62;90.17
8653;BME280;4364;52.426;9.424;2023-02-04T01:37:17;102457.69;;;3.55;89.66
8653;BME280;4364;52.426;9.424;2023-02-04T01:39:44;102464.66;;;3.49;90.49
8653;BME280;4364;52.426;9.424;2023-02-04T01:42:12;102469.66;;;3.52;90.80
8653;BME280;4364;52.426;9.424;2023-02-04T01:44:38;102485.72;;;3.46;90.75
8653;BME280;4364;52.426;9.424;2023-02-04T01:47:05;102501.53;;;3.41;90.67
8653;BME280;4364;52.426;9.424;2023-02-04T01:49:31;102508.44;;;3.43;91.12
8653;BME280;4364;52.426;9.424;2023-02-04T01:51:58;102511.38;;;3.33;91.11
8653;BME280;4364;52.426;9.424;2023-02-04T01:54:25;102516.41;;;3.37;91.09
8653;BME280;4364;52.426;9.424;2023-02-04T01:56:52;102503.59;;;3.39;91.06
8653;BME280;4364;52.426;9.424;2023-02-04T01:59:22;102510.00;;;3.38;91.41
8653;BME280;4364;52.426;9.424;2023-02-04T02:01:50;102521.78;;;3.37;91.88
8653;BME280;4364;52.426;9.424;2023-02-04T02:04:20;102534.03;;;3.39;91.96
8653;BME280;4364;52.426;9.424;2023-02-04T02:06:52;102532.06;;;3.33;91.77
8653;BME280;4364;52.426;9.424;2023-02-04T02:09:19;102533.72;;;3.34;92.19
8653;BME280;4364;52.426;9.424;2023-02-04T02:11:46;102540.13;;;3.33;92.65
8653;BME280;4364;52.426;9.424;2023-02-04T02:14:13;102551.47;;;3.43;92.52
8653;BME280;4364;52.426;9.424;2023-02-04T02:16:40;102551.81;;;3.40;92.63
8653;BME280;4364;52.426;9.424;2023-02-04T02:19:09;102555.72;;;3.38;93.14
8653;BME280;4364;52.426;9.424;2023-02-04T02:21:43;102558.34;;;3.46;92.99
8653;BME280;4364;52.426;9.424;2023-02-04T02:26:53;102572.78;;;3.45;93.03
8653;BME280;4364;52.426;9.424;2023-02-04T02:29:23;102578.53;;;3.42;93.00
8653;BME280;4364;52.426;9.424;2023-02-04T02:31:49;102578.72;;;3.40;93.50
8653;BME280;4364;52.426;9.424;2023-02-04T02:34:16;102574.56;;;3.38;93.92
8653;BME280;4364;52.426;9.424;2023-02-04T02:36:44;102579.53;;;3.41;93.98
8653;BME280;4364;52.426;9.424;2023-02-04T02:39:10;102587.16;;;3.52;93.09
8653;BME280;4364;52.426;9.424;2023-02-04T02:41:37;102587.53;;;3.49;93.36
8653;BME280;4364;52.426;9.424;2023-02-04T02:44:03;102603.03;;;3.47;93.43
8653;BME280;4364;52.426;9.424;2023-02-04T02:46:30;102610.66;;;3.58;93.55
8653;BME280;4364;52.426;9.424;2023-02-04T02:48:57;102610.38;;;3.53;93.06
8653;BME280;4364;52.426;9.424;2023-02-04T02:51:23;102612.69;;;3.56;92.99
8653;BME280;4364;52.426;9.424;2023-02-04T02:53:50;102622.13;;;3.52;93.41
8653;BME280;4364;52.426;9.424;2023-02-04T02:56:18;102637.91;;;3.55;92.83
8653;BME280;4364;52.426;9.424;2023-02-04T02:58:45;102633.88;;;3.59;92.69
8653;BME280;4364;52.426;9.424;2023-02-04T03:01:12;102644.50;;;3.52;92.82
8653;BME280;4364;52.426;9.424;2023-02-04T03:03:44;102640.44;;;3.57;92.05
8653;BME280;4364;52.426;9.424;2023-02-04T03:06:15;102650.53;;;3.55;92.35
8653;BME280;4364;52.426;9.424;2023-02-04T03:08:43;102652.88;;;3.58;92.18
8653;BME280;4364;52.426;9.424;2023-02-04T03:11:10;102658.44;;;3.56;91.94
8653;BME280;4364;52.426;9.424;2023-02-04T03:13:36;102650.38;;;3.56;91.88
8653;BME280;4364;52.426;9.424;2023-02-04T03:16:04;102665.00;;;3.53;92.12
8653;BME280;4364;52.426;9.424;2023-02-04T03:18:31;102671.22;;;3.54;92.14
8653;BME280;4364;52.426;9.424;2023-02-04T03:21:03;102677.63;;;3.53;92.54
8653;BME280;4364;52.426;9.424;2023-02-04T03:23:32;102687.34;;;3.54;92.30
8653;BME280;4364;52.426;9.424;2023-02-04T03:26:02;102683.19;;;3.51;92.32
8653;BME280;4364;52.426;9.424;2023-02-04T03:28:29;102685.06;;;3.51;92.72
8653;BME280;4364;52.426;9.424;2023-02-04T03:30:56;102692.94;;;3.52;92.53
8653;BME280;4364;52.426;9.424;2023-02-04T03:33:26;102696.22;;;3.63;91.74
8653;BME280;4364;52.426;9.424;2023-02-04T03:35:57;102699.78;;;3.55;91.77
8653;BME280;4364;52.426;9.424;2023-02-04T03:38:24;102695.97;;;3.73;90.77
8653;BME280;4364;52.426;9.424;2023-02-04T03:40:50;102695.25;;;3.56;90.48
8653;BME280;4364;52.426;9.424;2023-02-04T03:43:16;102705.00;;;3.57;88.95
8653;BME280;4364;52.426;9.424;2023-02-04T03:45:43;102715.09;;;3.55;87.54
8653;BME280;4364;52.426;9.424;2023-02-04T03:48:11;102720.03;;;3.51;86.81
8653;BME280;4364;52.426;9.424;2023-02-04T03:50:37;102719.22;;;3.42;87.03
8653;BME280;4364;52.426;9.424;2023-02-04T03:53:04;102728.31;;;3.41;86.20
8653;BME280;4364;52.426;9.424;2023-02-04T03:55:31;102721.63;;;3.37;86.05
8653;BME280;4364;52.426;9.424;2023-02-04T03:57:58;102731.91;;;3.33;84.01
8653;BME280;4364;52.426;9.424;2023-02-04T04:00:25;102723.81;;;3.33;83.58
8653;BME280;4364;52.426;9.424;2023-02-04T04:02:51;102726.03;;;3.30;83.22
8653;BME280;4364;52.426;9.424;2023-02-04T04:05:17;102730.28;;;3.24;83.32
8653;BME280;4364;52.426;9.424;2023-02-04T04:07:44;102728.97;;;3.20;83.78
8653;BME280;4364;52.426;9.424;2023-02-04T04:10:11;102736.59;;;3.08;83.91
8653;BME280;4364;52.426;9.424;2023-02-04T04:12:37;102741.53;;;2.96;84.80
8653;BME280;4364;52.426;9.424;2023-02-04T04:15:05;102757.06;;;2.78;85.28
8653;BME280;4364;52.426;9.424;2023-02-04T04:17:32;102760.63;;;2.70;85.89
8653;BME280;4364;52.426;9.424;2023-02-04T04:19:59;102765.78;;;2.80;85.23
8653;BME280;4364;52.426;9.424;2023-02-04T04:22:26;102772.41;;;2.69;84.86
8653;BME280;4364;52.426;9.424;2023-02-04T04:24:53;102779.44;;;2.62;85.74
8653;BME280;4364;52.426;9.424;2023-02-04T04:27:19;102787.38;;;2.47;86.67
8653;BME280;4364;52.426;9.424;2023-02-04T04:29:46;102790.75;;;2.49;86.37
8653;BME280;4364;52.426;9.424;2023-02-04T04:32:12;102796.66;;;2.36;87.12
8653;BME280;4364;52.426;9.424;2023-02-04T04:34:39;102799.66;;;2.33;87.22
8653;BME280;4364;52.426;9.424;2023-02-04T04:37:06;102810.75;;;2.30;88.04
8653;BME280;4364;52.426;9.424;2023-02-04T04:39:32;102824.88;;;2.24;88.80
8653;BME280;4364;52.426;9.424;2023-02-04T04:41:58;102818.16;;;2.20;89.12
8653;BME280;4364;52.426;9.424;2023-02-04T04:44:25;102818.97;;;2.20;89.39
8653;BME280;4364;52.426;9.424;2023-02-04T04:46:51;102811.63;;;2.22;89.81
8653;BME280;4364;52.426;9.424;2023-02-04T04:49:18;102817.66;;;2.25;89.94
8653;BME280;4364;52.426;9.424;2023-02-04T04:51:44;102821.00;;;2.27;90.21
8653;BME280;4364;52.426;9.424;2023-02-04T04:54:11;102820.16;;;2.26;90.58
8653;BME280;4364;52.426;9.424;2023-02-04T04:56:37;102827.56;;;2.24;90.77
8653;BME280;4364;52.426;9.424;2023-02-04T04:59:04;102832.94;;;2.16;90.71
8653;BME280;4364;52.426;9.424;2023-02-04T05:01:30;102840.47;;;2.12;90.64
8653;BME280;4364;52.426;9.424;2023-02-04T05:03:57;102843.31;;;2.02;91.07
8653;BME280;4364;52.426;9.424;2023-02-04T05:06:24;102851.53;;;2.01;91.29
8653;BME280;4364;52.426;9.424;2023-02-04T05:08:53;102853.19;;;1.94;91.58
8653;BME280;4364;52.426;9.424;2023-02-04T05:11:20;102846.84;;;1.95;91.53
8653;BME280;4364;52.426;9.424;2023-02-04T05:13:47;102854.22;;;1.93;91.69
8653;BME280;4364;52.426;9.424;2023-02-04T05:16:13;102847.47;;;1.80;91.91
8653;BME280;4364;52.426;9.424;2023-02-04T05:18:40;102857.72;;;1.77;91.98
8653;BME280;4364;52.426;9.424;2023-02-04T05:21:07;102876.31;;;1.70;92.35
8653;BME280;4364;52.426;9.424;2023-02-04T05:23:33;102878.47;;;1.66;92.43
8653;BME280;4364;52.426;9.424;2023-02-04T05:26:00;102880.66;;;1.63;92.38
8653;BME280;4364;52.426;9.424;2023-02-04T05:28:27;102886.34;;;1.60;92.87
8653;BME280;4364;52.426;9.424;2023-02-04T05:30:53;102882.16;;;1.57;92.61
8653;BME280;4364;52.426;9.424;2023-02-04T05:33:20;102889.19;;;1.58;92.35
8653;BME280;4364;52.426;9.424;2023-02-04T05:35:46;102893.22;;;1.54;92.64
8653;BME280;4364;52.426;9.424;2023-02-04T05:38:15;102900.22;;;1.55;92.71
8653;BME280;4364;52.426;9.424;2023-02-04T05:40:41;102907.09;;;1.50;92.84
8653;BME280;4364;52.426;9.424;2023-02-04T05:43:08;102907.41;;;1.46;93.02
8653;BME280;4364;52.426;9.424;2023-02-04T05:45:34;102906.44;;;1.47;93.45
8653;BME280;4364;52.426;9.424;2023-02-04T05:48:01;102909.47;;;1.53;93.30
8653;BME280;4364;52.426;9.424;2023-02-04T05:50:27;102917.84;;;1.58;93.57
8653;BME280;4364;52.426;9.424;2023-02-04T05:53:06;102919.72;;;1.57;93.15
8653;BME280;4364;52.426;9.424;2023-02-04T05:55:33;102916.50;;;1.62;92.81
8653;BME280;4364;52.426;9.424;2023-02-04T05:57:59;102924.22;;;1.57;92.80
8653;BME280;4364;52.426;9.424;2023-02-04T06:00:26;102925.56;;;1.53;93.17
8653;BME280;4364;52.426;9.424;2023-02-04T06:02:53;102915.81;;;1.52;93.59
8653;BME280;4364;52.426;9.424;2023-02-04T06:05:19;102921.50;;;1.48;93.75
8653;BME280;4364;52.426;9.424;2023-02-04T06:07:46;102936.25;;;1.44;93.61
8653;BME280;4364;52.426;9.424;2023-02-04T06:10:12;102934.03;;;1.40;94.34
8653;BME280;4364;52.426;9.424;2023-02-04T06:12:38;102930.69;;;1.38;94.33
8653;BME280;4364;52.426;9.424;2023-02-04T06:15:05;102932.69;;;1.36;94.30
8653;BME280;4364;52.426;9.424;2023-02-04T06:17:32;102938.88;;;1.36;94.65
8653;BME280;4364;52.426;9.424;2023-02-04T06:19:58;102940.41;;;1.39;94.69
8653;BME280;4364;52.426;9.424;2023-02-04T06:22:26;102951.50;;;1.44;94.72
8653;BME280;4364;52.426;9.424;2023-02-04T06:24:52;102955.16;;;1.43;94.74
8653;BME280;4364;52.426;9.424;2023-02-04T06:27:19;102962.22;;;1.44;95.14
8653;BME280;4364;52.426;9.424;2023-02-04T06:29:52;102970.09;;;1.45;94.70
8653;BME280;4364;52.426;9.424;2023-02-04T06:32:20;102966.75;;;1.52;94.97
8653;BME280;4364;52.426;9.424;2023-02-04T06:34:46;102957.88;;;1.51;95.12
8653;BME280;4364;52.426;9.424;2023-02-04T06:37:13;102962.94;;;1.54;94.79
8653;BME280;4364;52.426;9.424;2023-02-04T06:39:42;102963.00;;;1.71;94.34
8653;BME280;4364;52.426;9.424;2023-02-04T06:42:08;102971.47;;;1.50;94.14
8653;BME280;4364;52.426;9.424;2023-02-04T06:44:35;102976.31;;;1.46;94.71
8653;BME280;4364;52.426;9.424;2023-02-04T06:47:02;102984.88;;;1.50;94.81
8653;BME280;4364;52.426;9.424;2023-02-04T06:49:28;102996.72;;;1.47;94.87
8653;BME280;4364;52.426;9.424;2023-02-04T06:51:55;103006.59;;;1.38;94.79
8653;BME280;4364;52.426;9.424;2023-02-04T06:54:21;103017.63;;;1.35;95.34
8653;BME280;4364;52.426;9.424;2023-02-04T06:56:48;103015.44;;;1.31;95.48
8653;BME280;4364;52.426;9.424;2023-02-04T06:59:14;103013.06;;;1.27;95.33
8653;BME280;4364;52.426;9.424;2023-02-04T07:01:40;103018.59;;;1.26;96.02
8653;BME280;4364;52.426;9.424;2023-02-04T07:04:07;103015.09;;;1.34;96.18
8653;BME280;4364;52.426;9.424;2023-02-04T07:06:33;103015.97;;;1.34;95.70
8653;BME280;4364;52.426;9.424;2023-02-04T07:09:01;103012.31;;;1.43;95.27
8653;BME280;4364;52.426;9.424;2023-02-04T07:11:27;103011.75;;;1.32;95.07
8653;BME280;4364;52.426;9.424;2023-02-04T07:13:54;103018.31;;;1.37;95.22
8653;BME280;4364;52.426;9.424;2023-02-04T07:16:20;103033.72;;;1.35;95.42
8653;BME280;4364;52.426;9.424;2023-02-04T07:18:46;103033.91;;;1.42;95.57
8653;BME280;4364;52.426;9.424;2023-02-04T07:21:13;103038.06;;;1.62;93.47
8653;BME280;4364;52.426;9.424;2023-02-04T07:23:39;103036.34;;;1.53;93.28
8653;BME280;4364;52.426;9.424;2023-02-04T07:26:06;103044.44;;;1.35;93.50
8653;BME280;4364;52.426;9.424;2023-02-04T07:28:32;103049.44;;;1.30;94.03
8653;BME280;4364;52.426;9.424;2023-02-04T07:31:02;103050.91;;;1.24;94.14
8653;BME280;4364;52.426;9.424;2023-02-04T07:33:29;103055.28;;;1.25;94.95
8653;BME280;4364;52.426;9.424;2023-02-04T07:35:56;103051.38;;;1.20;95.22
8653;BME280;4364;52.426;9.424;2023-02-04T07:38:23;103056.06;;;1.18;95.65
8653;BME280;4364;52.426;9.424;2023-02-04T07:40:49;103059.94;;;1.23;95.65
8653;BME280;4364;52.426;9.424;2023-02-04T07:43:16;103068.19;;;1.30;95.65
8653;BME280;4364;52.426;9.424;2023-02-04T07:45:42;103071.53;;;1.24;95.86
8653;BME280;4364;52.426;9.424;2023-02-04T07:48:09;103075.81;;;1.17;95.82
8653;BME280;4364;52.426;9.424;2023-02-04T07:50:36;103086.38;;;1.18;96.72
8653;BME280;4364;52.426;9.424;2023-02-04T07:53:03;103085.06;;;1.22;96.89
8653;BME280;4364;52.426;9.424;2023-02-04T07:55:29;103090.00;;;1.35;96.77
8653;BME280;4364;52.426;9.424;2023-02-04T07:57:56;103089.47;;;1.32;96.35
8653;BME280;4364;52.426;9.424;2023-02-04T08:00:22;103092.63;;;1.27;96.44
8653;BME280;4364;52.426;9.424;2023-02-04T08:02:49;103102.66;;;1.25;96.90
8653;BME280;4364;52.426;9.424;2023-02-04T08:05:16;103104.59;;;1.33;96.89
8653;BME280;4364;52.426;9.424;2023-02-04T08:07:43;103103.41;;;1.35;96.87
8653;BME280;4364;52.426;9.424;2023-02-04T08:10:10;103101.75;;;1.34;96.90
8653;BME280;4364;52.426;9.424;2023-02-04T08:12:37;103098.19;;;1.34;96.85
8653;BME280;4364;52.426;9.424;2023-02-04T08:15:04;103104.28;;;1.36;96.94
8653;BME280;4364;52.426;9.424;2023-02-04T08:17:33;103094.06;;;1.39;96.96
8653;BME280;4364;52.426;9.424;2023-02-04T08:19:59;103095.59;;;1.42;96.56
8653;BME280;4364;52.426;9.424;2023-02-04T08:22:26;103093.25;;;1.47;96.61
8653;BME280;4364;52.426;9.424;2023-02-04T08:24:53;103098.81;;;1.45;96.48
8653;BME280;4364;52.426;9.424;2023-02-04T08:27:19;103112.03;;;1.47;96.55
8653;BME280;4364;52.426;9.424;2023-02-04T08:29:46;103104.00;;;1.47;95.66
8653;BME280;4364;52.426;9.424;2023-02-04T08:32:12;103106.88;;;1.45;95.61
8653;BME280;4364;52.426;9.424;2023-02-04T08:34:39;103110.22;;;1.47;95.96
8653;BME280;4364;52.426;9.424;2023-02-04T08:37:05;103104.84;;;1.47;95.79
8653;BME280;4364;52.426;9.424;2023-02-04T08:39:31;103115.28;;;1.51;95.46
8653;BME280;4364;52.426;9.424;2023-02-04T08:41:58;103129.06;;;1.56;95.35
8653;BME280;4364;52.426;9.424;2023-02-04T08:44:25;103115.53;;;1.65;93.81
8653;BME280;4364;52.426;9.424;2023-02-04T08:46:51;103125.50;;;1.55;94.10
8653;BME280;4364;52.426;9.424;2023-02-04T08:49:17;103122.34;;;1.60;94.55
8653;BME280;4364;52.426;9.424;2023-02-04T08:51:44;103130.31;;;1.70;94.81
8653;BME280;4364;52.426;9.424;2023-02-04T08:54:11;103138.34;;;1.70;94.75
8653;BME280;4364;52.426;9.424;2023-02-04T08:56:37;103141.97;;;1.87;94.41
8653;BME280;4364;52.426;9.424;2023-02-04T08:59:04;103143.06;;;2.02;93.53
8653;BME280;4364;52.426;9.424;2023-02-04T09:01:30;103144.06;;;2.01;93.42
8653;BME280;4364;52.426;9.424;2023-02-04T09:03:57;103151.66;;;2.06;93.40
8653;BME280;4364;52.426;9.424;2023-02-04T09:06:23;103154.53;;;2.12;93.75
8653;BME280;4364;52.426;9.424;2023-02-04T09:08:50;103150.91;;;2.30;92.50
8653;BME280;4364;52.426;9.424;2023-02-04T09:11:16;103160.50;;;2.32;93.14
8653;BME280;4364;52.426;9.424;2023-02-04T09:13:42;103165.41;;;2.45;92.20
8653;BME280;4364;52.426;9.424;2023-02-04T09:16:09;103167.94;;;2.55;92.06
8653;BME280;4364;52.426;9.424;2023-02-04T09:18:36;103167.50;;;2.68;90.64
8653;BME280;4364;52.426;9.424;2023-02-04T09:21:02;103168.84;;;2.80;91.09
8653;BME280;4364;52.426;9.424;2023-02-04T09:23:29;103168.84;;;2.80;91.23
8653;BME280;4364;52.426;9.424;2023-02-04T09:25:55;103177.63;;;2.90;91.36
8653;BME280;4364;52.426;9.424;2023-02-04T09:28:22;103172.59;;;3.04;90.44
8653;BME280;4364;52.426;9.424;2023-02-04T09:30:48;103185.53;;;3.08;86.19
8653;BME280;4364;52.426;9.424;2023-02-04T09:33:16;103191.06;;;2.99;86.45
8653;BME280;4364;52.426;9.424;2023-02-04T09:35:42;103193.91;;;2.97;86.08
8653;BME280;4364;52.426;9.424;2023-02-04T09:38:09;103202.00;;;2.97;86.67
8653;BME280;4364;52.426;9.424;2023-02-04T09:40:41;103194.78;;;3.14;85.24
8653;BME280;4364;52.426;9.424;2023-02-04T09:43:11;103195.81;;;3.05;84.55
8653;BME280;4364;52.426;9.424;2023-02-04T09:45:39;103198.19;;;3.16;84.12
8653;BME280;4364;52.426;9.424;2023-02-04T09:48:06;103200.69;;;3.18;84.10
8653;BME280;4364;52.426;9.424;2023-02-04T09:50:35;103206.59;;;3.21;83.04
8653;BME280;4364;52.426;9.424;2023-02-04T09:53:04;103204.41;;;3.25;81.55
8653;BME280;4364;52.426;9.424;2023-02-04T09:55:34;103212.47;;;3.25;80.91
8653;BME280;4364;52.426;9.424;2023-02-04T09:58:10;103222.41;;;3.32;80.96
8653;BME280;4364;52.426;9.424;2023-02-04T10:00:39;103234.00;;;3.41;81.33
8653;BME280;4364;52.426;9.424;2023-02-04T10:03:13;103236.69;;;3.41;78.91
8653;BME280;4364;52.426;9.424;2023-02-04T10:05:41;103236.19;;;3.38;78.66
8653;BME280;4364;52.426;9.424;2023-02-04T10:08:19;103234.16;;;3.31;79.64
8653;BME280;4364;52.426;9.424;2023-02-04T10:10:47;103244.44;;;3.44;79.65
8653;BME280;4364;52.426;9.424;2023-02-04T10:13:19;103244.59;;;3.51;78.27
8653;BME280;4364;52.426;9.424;2023-02-04T10:15:49;103248.97;;;3.60;78.49
8653;BME280;4364;52.426;9.424;2023-02-04T10:18:25;103233.16;;;3.74;75.85
8653;BME280;4364;52.426;9.424;2023-02-04T10:21:10;103237.03;;;3.71;75.77
8653;BME280;4364;52.426;9.424;2023-02-04T10:23:40;103242.09;;;3.66;76.47
8653;BME280;4364;52.426;9.424;2023-02-04T10:26:10;103234.31;;;3.87;75.46
8653;BME280;4364;52.426;9.424;2023-02-04T10:28:38;103239.03;;;3.85;75.56
8653;BME280;4364;52.426;9.424;2023-02-04T10:31:31;103242.25;;;3.73;75.71
8653;BME280;4364;52.426;9.424;2023-02-04T10:36:48;103233.31;;;3.72;76.81
8653;BME280;4364;52.426;9.424;2023-02-04T10:39:20;103239.91;;;3.78;77.34
8653;BME280;4364;52.426;9.424;2023-02-04T10:41:57;103242.59;;;3.86;76.77
8653;BME280;4364;52.426;9.424;2023-02-04T10:44:30;103244.91;;;3.81;77.39
8653;BME280;4364;52.426;9.424;2023-02-04T10:47:15;103246.78;;;3.88;77.86
8653;BME280;4364;52.426;9.424;2023-02-04T10:52:39;103245.22;;;4.11;77.28
8653;BME280;4364;52.426;9.424;2023-02-04T10:55:12;103247.59;;;4.05;76.88
8653;BME280;4364;52.426;9.424;2023-02-04T10:57:40;103245.69;;;4.22;76.43
8653;BME280;4364;52.426;9.424;2023-02-04T11:03:01;103248.31;;;4.55;76.39
8653;BME280;4364;52.426;9.424;2023-02-04T11:05:31;103242.41;;;4.52;76.52
8653;BME280;4364;52.426;9.424;2023-02-04T11:10:55;103247.56;;;4.70;75.64
8653;BME280;4364;52.426;9.424;2023-02-04T11:13:41;103249.50;;;4.84;74.13
8653;BME280;4364;52.426;9.424;2023-02-04T11:18:47;103258.19;;;5.03;72.40
8653;BME280;4364;52.426;9.424;2023-02-04T11:26:47;103260.25;;;4.92;71.65
8653;BME280;4364;52.426;9.424;2023-02-04T11:29:28;103256.81;;;5.07;71.26
8653;BME280;4364;52.426;9.424;2023-02-04T11:32:54;103244.06;;;5.24;70.66
8653;BME280;4364;52.426;9.424;2023-02-04T11:34:49;103255.28;;;5.35;70.49
8653;BME280;4364;52.426;9.424;2023-02-04T11:37:34;103244.84;;;5.55;69.14
8653;BME280;4364;52.426;9.424;2023-02-04T11:40:13;103253.00;;;5.47;68.29
8653;BME280;4364;52.426;9.424;2023-02-04T11:42:46;103262.28;;;5.68;67.34
8653;BME280;4364;52.426;9.424;2023-02-04T11:45:14;103263.16;;;5.68;67.13
8653;BME280;4364;52.426;9.424;2023-02-04T11:47:41;103257.88;;;5.75;66.33
8653;BME280;4364;52.426;9.424;2023-02-04T11:50:20;103251.13;;;5.71;66.81
8653;BME280;4364;52.426;9.424;2023-02-04T11:52:47;103256.56;;;5.86;67.25
8653;BME280;4364;52.426;9.424;2023-02-04T11:55:13;103265.22;;;5.81;65.93
8653;BME280;4364;52.426;9.424;2023-02-04T11:57:41;103268.88;;;5.88;65.51
8653;BME280;4364;52.426;9.424;2023-02-04T12:00:16;103269.38;;;5.69;64.96
8653;BME280;4364;52.426;9.424;2023-02-04T12:02:48;103269.59;;;5.82;64.90
8653;BME280;4364;52.426;9.424;2023-02-04T12:05:18;103274.94;;;5.90;65.22
8653;BME280;4364;52.426;9.424;2023-02-04T12:07:46;103275.75;;;5.91;64.14
8653;BME280;4364;52.426;9.424;2023-02-04T12:12:50;103272.25;;;6.28;63.58
8653;BME280;4364;52.426;9.424;2023-02-04T12:15:31;103270.50;;;5.98;62.53
8653;BME280;4364;52.426;9.424;2023-02-04T12:18:06;103275.97;;;5.66;64.12
8653;BME280;4364;52.426;9.424;2023-02-04T12:20:35;103275.66;;;5.61;65.21
8653;BME280;4364;52.426;9.424;2023-02-04T12:23:02;103274.84;;;5.61;65.39
8653;BME280;4364;52.426;9.424;2023-02-04T12:25:30;103278.00;;;5.64;65.18
8653;BME280;4364;52.426;9.424;2023-02-04T12:27:57;103267.94;;;5.35;64.60
8653;BME280;4364;52.426;9.424;2023-02-04T12:30:25;103276.09;;;5.27;64.94
8653;BME280;4364;52.426;9.424;2023-02-04T12:32:51;103280.28;;;5.06;66.40
8653;BME280;4364;52.426;9.424;2023-02-04T12:35:18;103287.88;;;4.94;67.53
8653;BME280;4364;52.426;9.424;2023-02-04T12:37:45;103276.06;;;5.04;67.63
8653;BME280;4364;52.426;9.424;2023-02-04T12:40:17;103282.97;;;5.06;66.45
8653;BME280;4364;52.426;9.424;2023-02-04T12:42:44;103282.34;;;4.88;66.49
8653;BME280;4364;52.426;9.424;2023-02-04T12:45:12;103290.66;;;4.86;67.54
8653;BME280;4364;52.426;9.424;2023-02-04T12:47:39;103292.41;;;5.02;67.32
8653;BME280;4364;52.426;9.424;2023-02-04T12:50:07;103283.31;;;5.03;66.86
8653;BME280;4364;52.426;9.424;2023-02-04T12:52:34;103285.97;;;5.11;67.32
8653;BME280;4364;52.426;9.424;2023-02-04T12:55:02;103292.88;;;5.37;66.12
8653;BME280;4364;52.426;9.424;2023-02-04T12:57:31;103281.66;;;5.25;66.61
8653;BME280;4364;52.426;9.424;2023-02-04T12:59:58;103287.63;;;5.12;66.07
8653;BME280;4364;52.426;9.424;2023-02-04T13:02:27;103293.25;;;5.03;66.59
8653;BME280;4364;52.426;9.424;2023-02-04T13:04:55;103298.56;;;5.19;67.57
8653;BME280;4364;52.426;9.424;2023-02-04T13:07:22;103300.03;;;5.30;66.27
8653;BME280;4364;52.426;9.424;2023-02-04T13:09:48;103303.28;;;5.48;65.84
8653;BME280;4364;52.426;9.424;2023-02-04T13:12:15;103292.78;;;5.53;65.68
8653;BME280;4364;52.426;9.424;2023-02-04T13:14:42;103295.59;;;5.60;64.87
8653;BME280;4364;52.426;9.424;2023-02-04T13:17:09;103298.97;;;5.62;63.96
8653;BME280;4364;52.426;9.424;2023-02-04T13:19:36;103307.75;;;5.56;63.68
8653;BME280;4364;52.426;9.424;2023-02-04T13:22:02;103304.75;;;5.51;62.26
8653;BME280;4364;52.426;9.424;2023-02-04T13:24:29;103315.53;;;5.28;62.86
8653;BME280;4364;52.426;9.424;2023-02-04T13:26:55;103308.28;;;5.28;63.71
8653;BME280;4364;52.426;9.424;2023-02-04T13:29:22;103315.25;;;5.14;63.41
8653;BME280;4364;52.426;9.424;2023-02-04T13:31:48;103309.13;;;5.29;62.57
8653;BME280;4364;52.426;9.424;2023-02-04T13:34:15;103303.59;;;5.22;63.39
8653;BME280;4364;52.426;9.424;2023-02-04T13:36:41;103301.84;;;5.06;63.58
8653;BME280;4364;52.426;9.424;2023-02-04T13:39:09;103300.16;;;5.05;63.18
8653;BME280;4364;52.426;9.424;2023-02-04T13:41:36;103298.50;;;4.96;63.92
8653;BME280;4364;52.426;9.424;2023-02-04T13:44:03;103298.47;;;5.04;63.67
8653;BME280;4364;52.426;9.424;2023-02-04T13:46:30;103297.06;;;4.77;64.36
8653;BME280;4364;52.426;9.424;2023-02-04T13:48:57;103299.44;;;4.72;65.13
8653;BME280;4364;52.426;9.424;2023-02-04T13:51:24;103296.63;;;4.65;65.28